sensor_id;sensor_type;location;lat;lon;timestamp;pressure;altitude;pressure_sealevel;temperature;humidity
65054;BME280;51639;47.828;35.038;2023-02-23T00:02:19;100545.59;;;-1.37;100.00
65054;BME280;51639;47.828;35.038;2023-02-23T00:17:21;100561.38;;;-1.32;100.00
65054;BME280;51639;47.828;35.038;2023-02-23T00:32:25;100580.88;;;-1.40;100.00
65054;BME280;51639;47.828;35.038;2023-02-23T00:47:27;100588.81;;;-1.52;100.00
65054;BME280;51639;47.828;35.038;2023-02-23T01:02:28;100591.78;;;-1.75;100.00
65054;BME280;51639;47.828;35.038;2023-02-23T01:17:31;100604.53;;;-1.89;100.00
65054;BME280;51639;47.828;35.038;2023-02-23T01:32:34;100606.03;;;-2.00;100.00
65054;BME280;51639;47.828;35.038;2023-02-23T01:47:37;100629.22;;;-2.09;100.00
65054;BME280;51639;47.828;35.038;2023-02-23T02:02:40;100653.25;;;-2.26;100.00
65054;BME280;51639;47.828;35.038;2023-02-23T02:49:05;100703.34;;;-2.46;100.00
65054;BME280;51639;47.828;35.038;2023-02-23T03:04:22;100720.09;;;-2.45;100.00
65054;BME280;51639;47.828;35.038;2023-02-23T03:35:24;100732.63;;;-2.80;100.00
65054;BME280;51639;47.828;35.038;2023-02-23T03:50:51;100751.41;;;-2.85;100.00
65054;BME280;51639;47.828;35.038;2023-02-23T04:06:13;100769.34;;;-2.82;100.00
65054;BME280;51639;47.828;35.038;2023-02-23T04:21:36;100779.97;;;-2.99;100.00
65054;BME280;51639;47.828;35.038;2023-02-23T04:36:39;100804.81;;;-3.13;100.00
65054;BME280;51639;47.828;35.038;2023-02-23T04:51:41;100821.34;;;-3.07;100.00
65054;BME280;51639;47.828;35.038;2023-02-23T05:06:43;100840.28;;;-3.08;100.00
65054;BME280;51639;47.828;35.038;2023-02-23T05:21:45;100849.91;;;-2.64;100.00
65054;BME280;51639;47.828;35.038;2023-02-23T05:36:47;100872.69;;;-1.86;100.00
65054;BME280;51639;47.828;35.038;2023-02-23T05:51:49;100881.84;;;-0.73;100.00
65054;BME280;51639;47.828;35.038;2023-02-23T06:06:51;100897.31;;;0.62;97.68
65054;BME280;51639;47.828;35.038;2023-02-23T06:21:53;100919.78;;;1.71;68.63
65054;BME280;51639;47.828;35.038;2023-02-23T06:36:58;100930.81;;;2.37;60.46
65054;BME280;51639;47.828;35.038;2023-02-23T06:52:00;100945.31;;;3.43;57.81
65054;BME280;51639;47.828;35.038;2023-02-23T07:07:02;100949.50;;;3.95;52.60
65054;BME280;51639;47.828;35.038;2023-02-23T07:22:05;100957.38;;;4.23;50.86
65054;BME280;51639;47.828;35.038;2023-02-23T07:37:07;100970.25;;;4.56;49.31
65054;BME280;51639;47.828;35.038;2023-02-23T07:52:09;100996.38;;;5.20;45.90
65054;BME280;51639;47.828;35.038;2023-02-23T08:07:11;101017.97;;;5.24;44.33
65054;BME280;51639;47.828;35.038;2023-02-23T08:22:13;101006.66;;;6.16;41.23
65054;BME280;51639;47.828;35.038;2023-02-23T08:37:15;101006.69;;;6.50;41.36
65054;BME280;51639;47.828;35.038;2023-02-23T08:52:17;101030.81;;;6.39;40.50
65054;BME280;51639;47.828;35.038;2023-02-23T09:07:20;101032.78;;;6.42;40.52
65054;BME280;51639;47.828;35.038;2023-02-23T09:22:23;101041.63;;;7.13;39.16
65054;BME280;51639;47.828;35.038;2023-02-23T09:37:26;101042.75;;;7.53;39.16
65054;BME280;51639;47.828;35.038;2023-02-23T09:52:38;101056.03;;;7.72;39.45
65054;BME280;51639;47.828;35.038;2023-02-23T10:07:46;101051.97;;;7.48;38.86
65054;BME280;51639;47.828;35.038;2023-02-23T10:22:55;101048.13;;;7.05;39.12
65054;BME280;51639;47.828;35.038;2023-02-23T10:38:13;101041.78;;;7.82;38.43
65054;BME280;51639;47.828;35.038;2023-02-23T10:53:24;101047.91;;;7.25;39.07
65054;BME280;51639;47.828;35.038;2023-02-23T11:08:29;101053.31;;;7.72;38.60
65054;BME280;51639;47.828;35.038;2023-02-23T11:23:35;101057.59;;;7.80;37.68
65054;BME280;51639;47.828;35.038;2023-02-23T11:38:38;101067.63;;;7.29;39.16
65054;BME280;51639;47.828;35.038;2023-02-23T11:53:44;101055.41;;;7.97;38.83
65054;BME280;51639;47.828;35.038;2023-02-23T12:08:50;101053.44;;;8.63;36.60
65054;BME280;51639;47.828;35.038;2023-02-23T12:39:40;101060.03;;;6.04;39.71
65054;BME280;51639;47.828;35.038;2023-02-23T12:54:44;101091.03;;;3.59;45.47
65054;BME280;51639;47.828;35.038;2023-02-23T13:24:57;101101.41;;;2.58;52.28
65054;BME280;51639;47.828;35.038;2023-02-23T13:40:39;101108.00;;;2.48;52.71
65054;BME280;51639;47.828;35.038;2023-02-23T13:55:47;101121.06;;;2.37;54.54
65054;BME280;51639;47.828;35.038;2023-02-23T14:10:52;101124.69;;;2.05;55.98
65054;BME280;51639;47.828;35.038;2023-02-23T14:26:15;101126.59;;;1.80;58.96
65054;BME280;51639;47.828;35.038;2023-02-23T14:41:27;101140.06;;;1.71;62.51
65054;BME280;51639;47.828;35.038;2023-02-23T14:56:30;101131.78;;;1.52;63.76
65054;BME280;51639;47.828;35.038;2023-02-23T15:11:48;101141.06;;;1.55;61.04
65054;BME280;51639;47.828;35.038;2023-02-23T15:26:56;101156.72;;;1.32;61.36
65054;BME280;51639;47.828;35.038;2023-02-23T15:41:59;101176.50;;;1.19;66.63
65054;BME280;51639;47.828;35.038;2023-02-23T15:57:31;101196.47;;;1.00;70.28
65054;BME280;51639;47.828;35.038;2023-02-23T16:12:36;101213.94;;;0.77;72.61
65054;BME280;51639;47.828;35.038;2023-02-23T16:27:41;101220.00;;;0.65;75.94
65054;BME280;51639;47.828;35.038;2023-02-23T16:42:43;101234.47;;;0.64;76.32
65054;BME280;51639;47.828;35.038;2023-02-23T16:57:47;101241.84;;;0.67;87.79
65054;BME280;51639;47.828;35.038;2023-02-23T17:13:03;101235.09;;;0.70;92.44
65054;BME280;51639;47.828;35.038;2023-02-23T17:28:05;101238.41;;;0.67;94.53
65054;BME280;51639;47.828;35.038;2023-02-23T17:43:08;101229.56;;;0.46;100.00
65054;BME280;51639;47.828;35.038;2023-02-23T17:58:10;101221.81;;;0.23;100.00
65054;BME280;51639;47.828;35.038;2023-02-23T18:13:14;101243.22;;;0.06;100.00
65054;BME280;51639;47.828;35.038;2023-02-23T18:28:17;101247.19;;;0.00;100.00
65054;BME280;51639;47.828;35.038;2023-02-23T18:43:19;101255.84;;;-0.12;100.00
65054;BME280;51639;47.828;35.038;2023-02-23T18:58:21;101246.41;;;-0.09;100.00
65054;BME280;51639;47.828;35.038;2023-02-23T19:13:23;101247.34;;;-0.05;100.00
65054;BME280;51639;47.828;35.038;2023-02-23T19:28:25;101261.03;;;-0.07;100.00
65054;BME280;51639;47.828;35.038;2023-02-23T19:43:27;101247.28;;;0.12;100.00
65054;BME280;51639;47.828;35.038;2023-02-23T19:58:30;101258.06;;;-0.22;100.00
65054;BME280;51639;47.828;35.038;2023-02-23T20:13:33;101276.28;;;-0.33;100.00
65054;BME280;51639;47.828;35.038;2023-02-23T20:28:36;101279.44;;;-0.40;100.00
65054;BME280;51639;47.828;35.038;2023-02-23T20:43:38;101275.34;;;-0.46;100.00
65054;BME280;51639;47.828;35.038;2023-02-23T20:58:40;101265.78;;;-0.47;100.00
65054;BME280;51639;47.828;35.038;2023-02-23T21:13:42;101260.56;;;-0.17;100.00
65054;BME280;51639;47.828;35.038;2023-02-23T21:28:45;101274.72;;;-0.25;100.00
65054;BME280;51639;47.828;35.038;2023-02-23T21:43:47;101299.53;;;-0.33;100.00
65054;BME280;51639;47.828;35.038;2023-02-23T21:58:55;101295.28;;;-0.26;100.00
65054;BME280;51639;47.828;35.038;2023-02-23T22:13:58;101296.50;;;-0.23;100.00
65054;BME280;51639;47.828;35.038;2023-02-23T22:29:00;101284.78;;;-0.40;100.00
65054;BME280;51639;47.828;35.038;2023-02-23T22:44:03;101267.41;;;0.01;100.00
65054;BME280;51639;47.828;35.038;2023-02-23T22:59:05;101240.50;;;-0.32;100.00
65054;BME280;51639;47.828;35.038;2023-02-23T23:14:10;101242.19;;;-0.19;100.00
65054;BME280;51639;47.828;35.038;2023-02-23T23:29:13;101241.41;;;-0.19;100.00
65054;BME280;51639;47.828;35.038;2023-02-23T23:44:20;101225.44;;;-0.37;100.00
65054;BME280;51639;47.828;35.038;2023-02-23T23:59:24;101209.69;;;-0.12;100.00
